Time;durP1;ratioP1;P1;durP2;ratioP2;P2;SDS_P1;SDS_P2;PMS_P1;PMS_P2;Temp;Humidity;BMP_temperature;BMP_pressure;BME280_temperature;BME280_humidity;BME280_pressure;Samples;Min_cycle;Max_cycle;Signal;HPM_P1;HPM_P2
2020/12/22 00:01:41;;;;;;;23.88;14.70;;;;;;;;;;5115551;28;20026;-17
2020/12/22 00:04:06;;;;;;;24.35;14.80;;;;;;;;;;5116860;28;20027;-19
2020/12/22 00:06:31;;;;;;;26.65;13.50;;;;;;;;;;5116914;28;20026;-18
2020/12/22 00:08:57;;;;;;;27.10;13.20;;;;;;;;;;5116919;28;20023;-18
2020/12/22 00:11:22;;;;;;;24.23;13.75;;;;;;;;;;5115626;28;20080;-18
2020/12/22 00:13:48;;;;;;;23.02;12.48;;;;;;;;;;5116951;28;20458;-18
2020/12/22 00:16:13;;;;;;;26.95;13.15;;;;;;;;;;5115227;28;20484;-18
2020/12/22 00:18:39;;;;;;;23.67;13.50;;;;;;;;;;5115288;28;20524;-18
2020/12/22 00:21:04;;;;;;;25.48;12.70;;;;;;;;;;5116428;28;20051;-19
2020/12/22 00:23:30;;;;;;;25.77;14.82;;;;;;;;;;5115010;28;20126;-18
2020/12/22 00:25:55;;;;;;;27.80;14.10;;;;;;;;;;5116430;27;20016;-18
2020/12/22 00:28:21;;;;;;;32.20;13.82;;;;;;;;;;5116417;28;20055;-18
2020/12/22 00:30:49;;;;;;;28.70;14.85;;;;;;;;;;5116065;28;20389;-19
2020/12/22 00:33:14;;;;;;;27.65;15.40;;;;;;;;;;5097940;28;20035;-18
2020/12/22 00:35:39;;;;;;;23.02;12.95;;;;;;;;;;5116234;28;20024;-18
2020/12/22 00:38:05;;;;;;;22.90;13.07;;;;;;;;;;5116131;28;20032;-18
2020/12/22 00:40:30;;;;;;;28.02;14.02;;;;;;;;;;5116043;28;20095;-18
2020/12/22 00:43:00;;;;;;;21.40;11.88;;;;;;;;;;5114767;28;20028;-19
2020/12/22 00:45:25;;;;;;;21.02;11.52;;;;;;;;;;5114605;28;20118;-18
2020/12/22 00:47:51;;;;;;;23.05;13.55;;;;;;;;;;5115936;28;20110;-18
2020/12/22 00:50:16;;;;;;;24.52;12.88;;;;;;;;;;5114254;28;20051;-19
2020/12/22 00:52:42;;;;;;;27.17;13.25;;;;;;;;;;5097606;28;20024;-18
2020/12/22 00:55:13;;;;;;;20.85;12.32;;;;;;;;;;5114546;28;20063;-19
2020/12/22 00:57:41;;;;;;;27.40;14.48;;;;;;;;;;5114446;28;20027;-18
2020/12/22 01:00:11;;;;;;;30.27;14.60;;;;;;;;;;5115954;28;20081;-18
2020/12/22 01:02:37;;;;;;;25.20;14.85;;;;;;;;;;5114456;28;20024;-18
2020/12/22 01:05:03;;;;;;;30.10;14.75;;;;;;;;;;5115620;28;20103;-19
2020/12/22 01:07:28;;;;;;;29.58;14.02;;;;;;;;;;5114466;28;20024;-17
2020/12/22 01:09:54;;;;;;;25.65;14.48;;;;;;;;;;5113605;28;20024;-18
2020/12/22 01:12:19;;;;;;;29.35;14.63;;;;;;;;;;5115319;28;20111;-19
2020/12/22 01:14:45;;;;;;;24.95;13.55;;;;;;;;;;5115471;28;20043;-19
2020/12/22 01:17:10;;;;;;;24.38;13.98;;;;;;;;;;5115508;28;20420;-18
2020/12/22 01:19:35;;;;;;;27.70;14.15;;;;;;;;;;5115449;28;20015;-19
2020/12/22 01:22:01;;;;;;;25.15;13.40;;;;;;;;;;5115337;28;20088;-19
2020/12/22 01:24:26;;;;;;;23.65;12.75;;;;;;;;;;5115293;28;20074;-18
2020/12/22 01:26:55;;;;;;;29.25;15.38;;;;;;;;;;5096880;28;20024;-18
2020/12/22 01:29:21;;;;;;;28.15;14.65;;;;;;;;;;5115055;28;20032;-18
2020/12/22 01:31:46;;;;;;;26.35;15.15;;;;;;;;;;5115393;28;20027;-18
2020/12/22 01:34:12;;;;;;;28.77;14.63;;;;;;;;;;5115356;27;20495;-19
2020/12/22 01:36:38;;;;;;;27.45;14.45;;;;;;;;;;5115004;28;20076;-19
2020/12/22 01:39:03;;;;;;;33.13;14.88;;;;;;;;;;5114934;28;20020;-18
2020/12/22 01:41:32;;;;;;;25.67;13.55;;;;;;;;;;5115152;27;20024;-19
2020/12/22 01:44:02;;;;;;;27.70;15.52;;;;;;;;;;5114997;28;20044;-18
2020/12/22 01:46:31;;;;;;;35.42;16.95;;;;;;;;;;5113478;28;20036;-18
2020/12/22 01:48:58;;;;;;;40.20;21.00;;;;;;;;;;5114635;28;20047;-18
2020/12/22 01:51:23;;;;;;;32.58;18.30;;;;;;;;;;5114598;28;20054;-18
2020/12/22 01:53:49;;;;;;;43.17;19.88;;;;;;;;;;5114978;28;20114;-17
2020/12/22 01:56:14;;;;;;;35.95;18.33;;;;;;;;;;5114866;28;20030;-18
2020/12/22 01:58:40;;;;;;;43.13;22.25;;;;;;;;;;5114639;28;20040;-18
2020/12/22 02:01:05;;;;;;;36.25;20.20;;;;;;;;;;5114762;28;20034;-19
2020/12/22 02:03:30;;;;;;;34.45;21.00;;;;;;;;;;5114464;28;20385;-18
2020/12/22 02:05:56;;;;;;;54.10;22.67;;;;;;;;;;5114499;28;20030;-18
2020/12/22 02:08:21;;;;;;;42.78;21.83;;;;;;;;;;5114634;27;20403;-19
2020/12/22 02:10:50;;;;;;;39.33;20.98;;;;;;;;;;5114504;28;20035;-19
2020/12/22 02:13:16;;;;;;;43.15;21.30;;;;;;;;;;5114314;28;20023;-18
2020/12/22 02:15:41;;;;;;;47.38;22.90;;;;;;;;;;5114266;28;20031;-18
2020/12/22 02:18:06;;;;;;;40.20;20.67;;;;;;;;;;5112950;28;20027;-17
2020/12/22 02:20:32;;;;;;;42.03;21.02;;;;;;;;;;5114104;28;20036;-18
2020/12/22 02:22:57;;;;;;;44.75;20.58;;;;;;;;;;5113133;28;20378;-19
2020/12/22 02:25:22;;;;;;;43.03;21.77;;;;;;;;;;5114228;28;20067;-18
2020/12/22 02:27:48;;;;;;;44.95;21.20;;;;;;;;;;5114044;28;20369;-18
2020/12/22 02:30:13;;;;;;;47.05;21.08;;;;;;;;;;5113859;28;20084;-19
2020/12/22 02:32:39;;;;;;;42.72;21.58;;;;;;;;;;5113866;28;20398;-18
2020/12/22 02:35:04;;;;;;;41.75;20.00;;;;;;;;;;5113900;28;20427;-19
2020/12/22 02:37:30;;;;;;;39.42;18.95;;;;;;;;;;5113789;28;20014;-19
2020/12/22 02:39:55;;;;;;;36.88;18.88;;;;;;;;;;5112406;28;20066;-18
2020/12/22 02:42:21;;;;;;;38.13;20.52;;;;;;;;;;5113729;28;20057;-18
2020/12/22 02:44:46;;;;;;;42.45;19.58;;;;;;;;;;5113770;28;20038;-19
2020/12/22 02:47:13;;;;;;;38.58;18.95;;;;;;;;;;5113618;28;20489;-19
2020/12/22 02:49:42;;;;;;;36.33;19.38;;;;;;;;;;5113504;28;20047;-19
2020/12/22 02:52:07;;;;;;;42.25;21.10;;;;;;;;;;5113647;28;20015;-18
2020/12/22 02:54:33;;;;;;;38.35;19.98;;;;;;;;;;5112112;28;20034;-18
2020/12/22 02:56:58;;;;;;;38.53;17.90;;;;;;;;;;5113527;28;20008;-18
2020/12/22 02:59:24;;;;;;;43.92;19.13;;;;;;;;;;5113206;28;20034;-19
2020/12/22 03:01:49;;;;;;;39.05;20.00;;;;;;;;;;5113399;28;20043;-19
2020/12/22 03:04:15;;;;;;;38.90;19.63;;;;;;;;;;5113451;28;20092;-18
2020/12/22 03:06:40;;;;;;;42.97;20.90;;;;;;;;;;5113180;28;20035;-17
2020/12/22 03:09:07;;;;;;;44.40;21.63;;;;;;;;;;5113429;28;20027;-19
2020/12/22 03:11:32;;;;;;;44.40;22.25;;;;;;;;;;5113161;28;20023;-19
2020/12/22 03:13:57;;;;;;;43.38;20.27;;;;;;;;;;5111975;28;20111;-18
2020/12/22 03:16:23;;;;;;;41.88;19.25;;;;;;;;;;5113129;28;20094;-19
2020/12/22 03:18:48;;;;;;;40.70;18.77;;;;;;;;;;5113072;28;20062;-17
2020/12/22 03:21:15;;;;;;;29.27;14.70;;;;;;;;;;5113103;28;20490;-19
2020/12/22 03:23:41;;;;;;;34.70;15.32;;;;;;;;;;5113271;28;20088;-18
2020/12/22 03:26:06;;;;;;;32.58;16.70;;;;;;;;;;5113302;28;20020;-18
2020/12/22 03:28:31;;;;;;;26.05;13.35;;;;;;;;;;5113171;28;20450;-19
2020/12/22 03:30:57;;;;;;;34.78;16.25;;;;;;;;;;5113057;28;20035;-18
2020/12/22 03:33:22;;;;;;;29.92;14.25;;;;;;;;;;5111319;28;20104;-18
2020/12/22 03:35:48;;;;;;;29.15;13.35;;;;;;;;;;5113153;28;20028;-17
2020/12/22 03:38:13;;;;;;;29.20;13.63;;;;;;;;;;5112795;28;20035;-18
2020/12/22 03:40:44;;;;;;;30.67;15.02;;;;;;;;;;5112744;28;20032;-18
2020/12/22 03:43:10;;;;;;;32.72;15.70;;;;;;;;;;5110989;28;20055;-18
2020/12/22 03:45:36;;;;;;;32.70;17.05;;;;;;;;;;5111584;28;20470;-18
2020/12/22 03:48:02;;;;;;;26.90;13.93;;;;;;;;;;5113112;28;20024;-18
2020/12/22 03:50:27;;;;;;;23.08;11.63;;;;;;;;;;5111116;28;20046;-18
2020/12/22 03:52:53;;;;;;;24.60;12.43;;;;;;;;;;5112761;28;20020;-18
2020/12/22 03:55:18;;;;;;;24.50;12.30;;;;;;;;;;5111394;28;20386;-18
2020/12/22 03:57:43;;;;;;;24.30;11.77;;;;;;;;;;5112650;28;20024;-18
2020/12/22 04:00:10;;;;;;;29.55;15.13;;;;;;;;;;5112711;28;20065;-18
2020/12/22 04:02:35;;;;;;;30.30;14.80;;;;;;;;;;5111248;28;20027;-19
2020/12/22 04:05:00;;;;;;;34.80;17.17;;;;;;;;;;5112681;28;20039;-18
2020/12/22 04:07:26;;;;;;;33.42;17.27;;;;;;;;;;5112527;28;20028;-18
2020/12/22 04:09:51;;;;;;;33.15;17.05;;;;;;;;;;5112711;28;20039;-18
2020/12/22 04:12:17;;;;;;;23.98;13.10;;;;;;;;;;5112525;28;20473;-18
2020/12/22 04:14:42;;;;;;;25.85;12.85;;;;;;;;;;5112518;28;20091;-18
2020/12/22 04:17:07;;;;;;;27.10;14.55;;;;;;;;;;5112590;28;20026;-18
2020/12/22 04:19:33;;;;;;;26.55;15.30;;;;;;;;;;5111046;28;20065;-18
2020/12/22 04:21:58;;;;;;;25.92;13.05;;;;;;;;;;5111190;28;20555;-18
2020/12/22 04:24:23;;;;;;;27.52;12.55;;;;;;;;;;5112696;28;20024;-18
2020/12/22 04:26:49;;;;;;;29.40;14.07;;;;;;;;;;5112362;28;20496;-18
2020/12/22 04:29:14;;;;;;;27.92;13.70;;;;;;;;;;5112338;28;20034;-18
2020/12/22 04:31:40;;;;;;;24.05;13.13;;;;;;;;;;5112558;28;20028;-18
2020/12/22 04:34:05;;;;;;;25.63;12.55;;;;;;;;;;5112270;28;20415;-18
2020/12/22 04:36:31;;;;;;;25.75;13.27;;;;;;;;;;5112248;28;20036;-18
2020/12/22 04:38:56;;;;;;;30.15;13.65;;;;;;;;;;5112269;28;20019;-19
2020/12/22 04:41:22;;;;;;;24.45;12.85;;;;;;;;;;5112292;28;20363;-18
2020/12/22 04:43:48;;;;;;;25.30;12.88;;;;;;;;;;5110996;28;20076;-19
2020/12/22 04:46:16;;;;;;;23.58;12.93;;;;;;;;;;5114485;28;20024;-18
2020/12/22 04:48:42;;;;;;;24.52;11.95;;;;;;;;;;5116133;28;20027;-18
2020/12/22 04:51:09;;;;;;;22.17;11.52;;;;;;;;;;5115735;28;20062;-17
2020/12/22 04:53:34;;;;;;;19.90;11.07;;;;;;;;;;5116043;28;20432;-17
2020/12/22 04:56:09;;;;;;;21.33;13.05;;;;;;;;;;5115800;28;20028;-17
2020/12/22 04:58:35;;;;;;;23.25;13.15;;;;;;;;;;5114472;28;20144;-18
2020/12/22 05:01:01;;;;;;;24.95;12.05;;;;;;;;;;5115779;28;20019;-18
2020/12/22 05:03:27;;;;;;;21.60;12.00;;;;;;;;;;5114266;28;20046;-18
2020/12/22 05:05:53;;;;;;;25.67;11.80;;;;;;;;;;5115646;28;20461;-18
2020/12/22 05:08:18;;;;;;;22.52;11.68;;;;;;;;;;5115571;28;20137;-18
2020/12/22 05:10:44;;;;;;;18.17;10.98;;;;;;;;;;5115434;28;20031;-17
2020/12/22 05:13:10;;;;;;;19.40;10.98;;;;;;;;;;5115547;28;20117;-17
2020/12/22 05:15:39;;;;;;;23.00;13.13;;;;;;;;;;5115414;28;20019;-18
2020/12/22 05:18:05;;;;;;;21.27;12.02;;;;;;;;;;5114147;28;20063;-17
2020/12/22 05:20:31;;;;;;;24.08;12.57;;;;;;;;;;5113959;28;20028;-17
2020/12/22 05:22:56;;;;;;;23.65;12.75;;;;;;;;;;5115245;28;20028;-19
2020/12/22 05:25:22;;;;;;;22.75;12.10;;;;;;;;;;5115261;28;20023;-18
2020/12/22 05:27:49;;;;;;;26.95;13.32;;;;;;;;;;5113936;28;20023;-18
2020/12/22 05:30:18;;;;;;;23.27;12.70;;;;;;;;;;5113776;28;20031;-18
2020/12/22 05:32:48;;;;;;;21.67;12.40;;;;;;;;;;5114150;28;20039;-18
2020/12/22 05:35:13;;;;;;;21.10;11.35;;;;;;;;;;5115133;28;20043;-19
2020/12/22 05:37:42;;;;;;;21.85;11.88;;;;;;;;;;5113568;28;20032;-17
2020/12/22 05:40:09;;;;;;;23.98;12.13;;;;;;;;;;5115014;28;20047;-18
2020/12/22 05:42:35;;;;;;;25.20;13.40;;;;;;;;;;5114919;27;20027;-17
2020/12/22 05:45:02;;;;;;;24.45;12.80;;;;;;;;;;5113659;28;20023;-18
2020/12/22 05:47:29;;;;;;;28.48;15.73;;;;;;;;;;5113550;28;20027;-17
2020/12/22 05:49:55;;;;;;;28.60;15.18;;;;;;;;;;5114566;28;20039;-17
2020/12/22 05:52:22;;;;;;;28.70;15.98;;;;;;;;;;5114755;28;20462;-18
2020/12/22 05:54:50;;;;;;;22.55;13.13;;;;;;;;;;5114779;28;20035;-18
2020/12/22 05:57:18;;;;;;;23.60;13.00;;;;;;;;;;5112905;28;20028;-18
2020/12/22 05:59:43;;;;;;;21.83;11.02;;;;;;;;;;5114572;28;20016;-18
2020/12/22 06:02:09;;;;;;;21.60;11.55;;;;;;;;;;5114953;28;20016;-18
2020/12/22 06:04:35;;;;;;;21.08;10.85;;;;;;;;;;5113108;28;20022;-17
2020/12/22 06:07:02;;;;;;;21.77;12.07;;;;;;;;;;5114564;28;20553;-18
2020/12/22 06:09:27;;;;;;;21.27;12.02;;;;;;;;;;5112991;28;20024;-18
2020/12/22 06:11:58;;;;;;;22.40;12.40;;;;;;;;;;5114581;28;20035;-17
2020/12/22 06:14:24;;;;;;;21.60;10.98;;;;;;;;;;5114278;28;20028;-17
2020/12/22 06:16:50;;;;;;;19.80;11.18;;;;;;;;;;5113097;28;20106;-17
2020/12/22 06:19:15;;;;;;;20.25;12.13;;;;;;;;;;5114221;28;20038;-18
2020/12/22 06:21:41;;;;;;;22.50;13.20;;;;;;;;;;5114232;28;20020;-18
2020/12/22 06:24:06;;;;;;;21.52;10.65;;;;;;;;;;5114050;28;20088;-18
2020/12/22 06:26:32;;;;;;;19.52;11.73;;;;;;;;;;5112721;28;20054;-18
2020/12/22 06:28:57;;;;;;;26.20;13.10;;;;;;;;;;5113913;28;20035;-19
2020/12/22 06:31:24;;;;;;;21.88;11.90;;;;;;;;;;5112417;28;20020;-18
2020/12/22 06:33:52;;;;;;;20.13;11.32;;;;;;;;;;5113950;28;20039;-18
2020/12/22 06:36:18;;;;;;;20.00;12.02;;;;;;;;;;5112654;28;20106;-18
2020/12/22 06:38:48;;;;;;;21.80;11.65;;;;;;;;;;5113669;28;20157;-18
2020/12/22 06:41:32;;;;;;;22.10;12.73;;;;;;;;;;5113861;28;20477;-18
2020/12/22 06:43:57;;;;;;;25.25;13.50;;;;;;;;;;5113726;28;20035;-18
2020/12/22 06:46:34;;;;;;;24.38;13.35;;;;;;;;;;5113898;28;20016;-19
2020/12/22 06:49:00;;;;;;;19.75;11.50;;;;;;;;;;5113556;28;20035;-18
2020/12/22 06:51:31;;;;;;;20.83;11.48;;;;;;;;;;5112187;28;20044;-19
2020/12/22 06:54:17;;;;;;;19.48;12.13;;;;;;;;;;5113843;27;20129;-19
2020/12/22 06:56:44;;;;;;;20.92;12.18;;;;;;;;;;5097964;28;20080;-19
2020/12/22 06:59:13;;;;;;;19.45;10.88;;;;;;;;;;5113497;27;20023;-18
2020/12/22 07:01:44;;;;;;;23.25;12.43;;;;;;;;;;5113456;28;20096;-17
2020/12/22 07:04:09;;;;;;;22.73;12.48;;;;;;;;;;5113697;28;20031;-18
2020/12/22 07:06:47;;;;;;;21.13;11.73;;;;;;;;;;5113556;28;20580;-19
2020/12/22 07:09:26;;;;;;;24.98;12.63;;;;;;;;;;5112871;28;20436;-18
2020/12/22 07:11:54;;;;;;;25.75;14.20;;;;;;;;;;5113340;28;20036;-18
2020/12/22 07:14:20;;;;;;;24.30;13.45;;;;;;;;;;5111873;28;20761;-19
2020/12/22 07:16:46;;;;;;;29.33;12.18;;;;;;;;;;5113458;28;20036;-18
2020/12/22 07:19:15;;;;;;;25.52;13.02;;;;;;;;;;5113172;27;20370;-17
2020/12/22 07:21:41;;;;;;;21.35;11.93;;;;;;;;;;5111670;28;20031;-20
2020/12/22 07:24:07;;;;;;;24.38;12.23;;;;;;;;;;5111759;28;20020;-18
2020/12/22 07:26:35;;;;;;;24.95;13.35;;;;;;;;;;5113030;28;20030;-18
2020/12/22 07:29:00;;;;;;;26.38;12.70;;;;;;;;;;5112930;28;20445;-25
2020/12/22 07:31:26;;;;;;;18.33;10.35;;;;;;;;;;5113190;28;20055;-17
2020/12/22 07:33:51;;;;;;;25.83;11.65;;;;;;;;;;5111617;28;20027;-18
2020/12/22 07:36:16;;;;;;;21.77;11.88;;;;;;;;;;5112888;28;20470;-18
2020/12/22 07:38:42;;;;;;;23.08;11.80;;;;;;;;;;5112821;28;20369;-17
2020/12/22 07:41:07;;;;;;;27.38;13.35;;;;;;;;;;5112974;28;20031;-18
2020/12/22 07:43:32;;;;;;;22.00;11.77;;;;;;;;;;5112745;28;20434;-19
2020/12/22 07:45:58;;;;;;;22.08;11.77;;;;;;;;;;5111909;28;20034;-18
2020/12/22 07:48:23;;;;;;;21.25;11.95;;;;;;;;;;5112645;28;20058;-19
2020/12/22 07:50:52;;;;;;;26.52;12.07;;;;;;;;;;5112428;28;20047;-18
2020/12/22 07:53:18;;;;;;;25.25;12.80;;;;;;;;;;5112754;28;20059;-18
2020/12/22 07:55:43;;;;;;;27.75;11.60;;;;;;;;;;5111346;28;20047;-18
2020/12/22 07:58:09;;;;;;;27.15;12.05;;;;;;;;;;5112909;28;20067;-18
2020/12/22 08:00:35;;;;;;;26.23;12.65;;;;;;;;;;5112836;28;20035;-17
2020/12/22 08:03:13;;;;;;;24.05;12.85;;;;;;;;;;5111317;28;20016;-19
2020/12/22 08:05:39;;;;;;;21.92;11.88;;;;;;;;;;5111219;28;20039;-19
2020/12/22 08:08:04;;;;;;;21.75;12.10;;;;;;;;;;5112642;28;20020;-18
2020/12/22 08:10:30;;;;;;;25.90;12.60;;;;;;;;;;5112365;28;20120;-19
2020/12/22 08:12:57;;;;;;;21.48;12.57;;;;;;;;;;5112597;28;20019;-18
2020/12/22 08:15:23;;;;;;;22.83;11.48;;;;;;;;;;5111144;28;20444;-18
2020/12/22 08:17:50;;;;;;;23.77;11.55;;;;;;;;;;5112494;28;20024;-18
2020/12/22 08:20:16;;;;;;;21.45;11.63;;;;;;;;;;5112886;28;20036;-18
2020/12/22 08:22:42;;;;;;;21.90;12.32;;;;;;;;;;5115194;28;20030;-16
2020/12/22 08:25:08;;;;;;;22.30;11.55;;;;;;;;;;5116473;28;20032;-18
2020/12/22 08:27:33;;;;;;;24.15;11.73;;;;;;;;;;5116411;28;20081;-18
2020/12/22 08:29:59;;;;;;;22.10;12.73;;;;;;;;;;5116268;28;20036;-18
2020/12/22 08:32:25;;;;;;;22.92;11.18;;;;;;;;;;5116225;28;20016;-17
2020/12/22 08:34:53;;;;;;;52.03;28.73;;;;;;;;;;5116643;28;20040;-18
2020/12/22 08:37:27;;;;;;;25.95;14.88;;;;;;;;;;5116642;28;20425;-17
2020/12/22 08:39:53;;;;;;;21.25;11.15;;;;;;;;;;5114899;28;20040;-16
2020/12/22 08:42:19;;;;;;;19.25;11.05;;;;;;;;;;5116322;28;20055;-17
2020/12/22 08:44:49;;;;;;;21.10;10.68;;;;;;;;;;5115932;28;20031;-17
2020/12/22 08:47:14;;;;;;;18.42;10.13;;;;;;;;;;5116308;28;20015;-18
2020/12/22 08:49:48;;;;;;;21.93;11.67;;;;;;;;;;5018463;28;10000757;-20
2020/12/22 08:52:19;;;;;;;20.50;10.82;;;;;;;;;;5098026;28;20250;-18
2020/12/22 08:54:46;;;;;;;20.65;12.20;;;;;;;;;;5091932;28;20047;-20
2020/12/22 08:57:13;;;;;;;20.75;12.20;;;;;;;;;;5090750;28;20020;-23
2020/12/22 08:59:40;;;;;;;23.20;12.63;;;;;;;;;;5091685;28;20028;-23
2020/12/22 09:02:19;;;;;;;19.02;11.07;;;;;;;;;;5091561;28;20024;-19
2020/12/22 09:04:45;;;;;;;19.67;9.98;;;;;;;;;;5091938;28;20359;-19
2020/12/22 09:07:11;;;;;;;18.33;9.30;;;;;;;;;;5090110;28;20016;-19
2020/12/22 09:09:36;;;;;;;14.85;8.52;;;;;;;;;;5089946;28;20704;-19
2020/12/22 09:12:06;;;;;;;13.75;8.10;;;;;;;;;;5091517;28;20046;-19
2020/12/22 09:14:41;;;;;;;20.15;9.27;;;;;;;;;;5090847;28;20502;-19
2020/12/22 09:17:07;;;;;;;18.25;9.43;;;;;;;;;;5091638;28;20024;-20
2020/12/22 09:19:49;;;;;;;15.00;8.80;;;;;;;;;;5091377;28;20031;-16
2020/12/22 09:22:15;;;;;;;13.38;8.23;;;;;;;;;;5091093;28;20028;-16
2020/12/22 09:24:41;;;;;;;14.38;8.82;;;;;;;;;;5091515;28;20074;-19
2020/12/22 09:27:08;;;;;;;16.08;8.85;;;;;;;;;;5090884;28;20020;-19
2020/12/22 09:29:37;;;;;;;14.75;8.10;;;;;;;;;;5105671;28;20130;-19
2020/12/22 09:32:03;;;;;;;13.13;8.40;;;;;;;;;;5090750;28;20028;-19
2020/12/22 09:34:30;;;;;;;13.43;7.70;;;;;;;;;;5091236;28;20024;-19
2020/12/22 09:36:56;;;;;;;11.68;6.38;;;;;;;;;;5091005;28;20031;-19
2020/12/22 09:39:23;;;;;;;15.00;7.72;;;;;;;;;;5090115;28;20027;-19
2020/12/22 09:41:48;;;;;;;11.80;7.65;;;;;;;;;;5091055;28;20028;-20
2020/12/22 09:44:14;;;;;;;15.02;7.82;;;;;;;;;;5089724;28;20024;-19
2020/12/22 09:46:40;;;;;;;13.65;8.50;;;;;;;;;;5090698;28;20028;-20
2020/12/22 09:49:05;;;;;;;15.57;8.35;;;;;;;;;;5091464;28;20028;-19
2020/12/22 09:51:31;;;;;;;13.20;7.80;;;;;;;;;;5104520;28;20414;-18
2020/12/22 09:53:56;;;;;;;18.05;8.20;;;;;;;;;;5093058;28;20039;-18
2020/12/22 09:56:22;;;;;;;13.23;7.38;;;;;;;;;;5111258;28;20057;-19
2020/12/22 09:58:47;;;;;;;16.27;7.80;;;;;;;;;;5111453;28;20027;-19
2020/12/22 10:01:13;;;;;;;13.18;7.72;;;;;;;;;;5109816;28;20610;-18
2020/12/22 10:03:38;;;;;;;20.52;8.65;;;;;;;;;;5109621;28;20029;-22
2020/12/22 10:06:04;;;;;;;15.70;8.02;;;;;;;;;;5111066;28;20028;-18
2020/12/22 10:08:29;;;;;;;16.50;7.55;;;;;;;;;;5111110;28;20469;-19
2020/12/22 10:10:55;;;;;;;12.02;6.93;;;;;;;;;;5111199;28;20043;-19
2020/12/22 10:13:20;;;;;;;16.38;7.53;;;;;;;;;;5111040;28;20027;-19
2020/12/22 10:15:45;;;;;;;12.63;6.78;;;;;;;;;;5110671;28;20035;-19
2020/12/22 10:18:11;;;;;;;15.70;6.88;;;;;;;;;;5109681;28;20048;-19
2020/12/22 10:20:36;;;;;;;10.00;6.20;;;;;;;;;;5105792;28;20028;-18
2020/12/22 10:23:03;;;;;;;16.92;7.20;;;;;;;;;;5089912;28;20474;-18
2020/12/22 10:25:28;;;;;;;12.20;5.93;;;;;;;;;;5095088;28;20039;-19
2020/12/22 10:27:54;;;;;;;10.20;5.80;;;;;;;;;;5089726;28;20016;-18
2020/12/22 10:30:19;;;;;;;10.73;6.40;;;;;;;;;;5090002;28;20438;-19
2020/12/22 10:32:45;;;;;;;15.85;6.88;;;;;;;;;;5090020;28;20363;-19
2020/12/22 10:35:10;;;;;;;13.60;7.75;;;;;;;;;;5089832;28;20086;-18
2020/12/22 10:37:36;;;;;;;13.63;7.10;;;;;;;;;;5089886;28;20482;-19
2020/12/22 10:40:02;;;;;;;14.20;6.93;;;;;;;;;;5089448;28;20040;-19
2020/12/22 10:42:27;;;;;;;18.55;8.13;;;;;;;;;;5089379;28;20210;-18
2020/12/22 10:44:53;;;;;;;12.70;7.13;;;;;;;;;;5088984;28;20028;-19
2020/12/22 10:47:18;;;;;;;11.05;5.40;;;;;;;;;;5088202;28;20024;-19
2020/12/22 10:49:44;;;;;;;12.32;7.68;;;;;;;;;;5087633;28;20490;-19
2020/12/22 10:52:09;;;;;;;14.48;7.72;;;;;;;;;;5089583;28;20080;-19
2020/12/22 10:54:35;;;;;;;24.80;14.93;;;;;;;;;;5089743;28;20089;-19
2020/12/22 10:57:00;;;;;;;12.43;7.70;;;;;;;;;;5088624;28;20459;-18
2020/12/22 10:59:26;;;;;;;14.00;7.82;;;;;;;;;;5089151;28;20035;-18
2020/12/22 11:01:51;;;;;;;14.05;6.85;;;;;;;;;;5097880;28;20032;-16
2020/12/22 11:04:17;;;;;;;16.85;6.78;;;;;;;;;;5099661;28;20559;-19
2020/12/22 11:06:56;;;;;;;13.10;7.35;;;;;;;;;;5089769;28;20015;-18
2020/12/22 11:09:22;;;;;;;17.38;7.97;;;;;;;;;;5103526;28;20096;-18
2020/12/22 11:11:48;;;;;;;12.43;7.38;;;;;;;;;;5109532;28;20020;-18
2020/12/22 11:14:14;;;;;;;13.57;6.78;;;;;;;;;;5109292;28;20636;-18
2020/12/22 11:16:39;;;;;;;13.38;6.90;;;;;;;;;;5108551;28;20016;-18
2020/12/22 11:19:05;;;;;;;12.43;7.40;;;;;;;;;;5109341;28;20462;-19
2020/12/22 11:21:31;;;;;;;11.02;6.50;;;;;;;;;;5099173;28;20016;-18
2020/12/22 11:23:56;;;;;;;11.45;5.70;;;;;;;;;;5089030;28;20036;-19
2020/12/22 11:26:22;;;;;;;10.73;5.97;;;;;;;;;;5088863;28;20024;-18
2020/12/22 11:28:49;;;;;;;12.63;6.70;;;;;;;;;;5100833;28;20023;-19
2020/12/22 11:31:14;;;;;;;11.80;6.05;;;;;;;;;;5109095;28;20041;-19
2020/12/22 11:33:40;;;;;;;11.93;6.65;;;;;;;;;;5097376;28;20103;-19
2020/12/22 11:36:06;;;;;;;14.90;6.57;;;;;;;;;;5088985;28;20016;-18
2020/12/22 11:38:32;;;;;;;15.55;7.35;;;;;;;;;;5090388;28;20036;-20
2020/12/22 11:40:57;;;;;;;11.38;6.15;;;;;;;;;;5109581;28;20030;-18
2020/12/22 11:43:23;;;;;;;14.15;7.78;;;;;;;;;;5109639;28;20550;-19
2020/12/22 11:45:49;;;;;;;13.40;7.88;;;;;;;;;;5108157;28;20024;-18
2020/12/22 11:48:14;;;;;;;12.52;6.25;;;;;;;;;;5108053;28;20119;-19
2020/12/22 11:50:40;;;;;;;11.90;6.63;;;;;;;;;;5108192;28;20055;-19
2020/12/22 11:53:05;;;;;;;14.50;7.10;;;;;;;;;;5091893;28;20032;-19
2020/12/22 11:55:31;;;;;;;12.65;6.97;;;;;;;;;;5091366;28;20244;-18
2020/12/22 11:57:56;;;;;;;12.20;7.15;;;;;;;;;;5092812;28;20033;-19
2020/12/22 12:00:21;;;;;;;15.48;6.80;;;;;;;;;;5092990;28;20394;-18
2020/12/22 12:02:47;;;;;;;15.05;7.32;;;;;;;;;;5092489;28;20421;-19
2020/12/22 12:05:12;;;;;;;14.63;6.93;;;;;;;;;;5092685;28;20385;-19
2020/12/22 12:07:38;;;;;;;15.25;7.03;;;;;;;;;;5093004;28;20032;-18
2020/12/22 12:10:04;;;;;;;12.00;6.80;;;;;;;;;;5092516;28;20028;-18
2020/12/22 12:12:29;;;;;;;11.52;5.85;;;;;;;;;;5091358;28;20377;-18
2020/12/22 12:14:55;;;;;;;15.43;7.28;;;;;;;;;;5091779;28;20541;-19
2020/12/22 12:17:21;;;;;;;13.63;7.57;;;;;;;;;;5091457;28;20036;-18
2020/12/22 12:19:46;;;;;;;14.73;7.90;;;;;;;;;;5092325;28;20095;-18
2020/12/22 12:22:12;;;;;;;19.58;9.02;;;;;;;;;;5095525;28;20071;-19
2020/12/22 12:24:38;;;;;;;18.60;8.68;;;;;;;;;;5092456;28;20020;-21
2020/12/22 12:27:03;;;;;;;21.27;9.40;;;;;;;;;;5107518;28;20031;-19
2020/12/22 12:29:29;;;;;;;19.23;10.02;;;;;;;;;;5112558;28;20022;-19
2020/12/22 12:31:54;;;;;;;17.90;8.52;;;;;;;;;;5112960;28;20039;-21
2020/12/22 12:34:20;;;;;;;21.00;10.23;;;;;;;;;;5112859;28;20027;-20
2020/12/22 12:36:45;;;;;;;15.43;8.02;;;;;;;;;;5112500;28;20027;-20
2020/12/22 12:39:11;;;;;;;20.83;9.45;;;;;;;;;;5112312;28;20077;-19
2020/12/22 12:41:36;;;;;;;19.55;9.35;;;;;;;;;;5112756;28;20102;-19
2020/12/22 12:44:03;;;;;;;20.88;9.77;;;;;;;;;;5110898;28;20480;-20
2020/12/22 12:46:28;;;;;;;20.60;9.82;;;;;;;;;;5110758;28;20063;-17
2020/12/22 12:48:55;;;;;;;24.33;10.43;;;;;;;;;;5112363;28;20051;-20
2020/12/22 12:51:21;;;;;;;19.17;9.32;;;;;;;;;;5111672;28;20138;-19
2020/12/22 12:53:46;;;;;;;18.92;8.07;;;;;;;;;;5112169;28;20438;-19
2020/12/22 12:56:15;;;;;;;21.35;9.57;;;;;;;;;;5111982;28;20092;-20
2020/12/22 12:58:41;;;;;;;18.35;9.38;;;;;;;;;;5111688;28;20064;-20
2020/12/22 13:01:07;;;;;;;19.02;8.50;;;;;;;;;;5112051;28;20024;-20
2020/12/22 13:03:32;;;;;;;16.23;7.35;;;;;;;;;;5111556;28;20019;-20
2020/12/22 13:05:58;;;;;;;22.58;9.80;;;;;;;;;;5111006;28;20672;-20
2020/12/22 13:08:23;;;;;;;19.13;9.20;;;;;;;;;;5110422;28;20103;-18
2020/12/22 13:10:49;;;;;;;17.55;8.73;;;;;;;;;;5110502;28;20048;-20
2020/12/22 13:13:14;;;;;;;22.20;9.57;;;;;;;;;;5111796;28;20060;-19
2020/12/22 13:15:40;;;;;;;78.78;35.45;;;;;;;;;;5111588;28;20036;-19
2020/12/22 13:18:05;;;;;;;37.05;15.63;;;;;;;;;;5112160;28;20016;-20
2020/12/22 13:20:30;;;;;;;14.95;8.05;;;;;;;;;;5111405;28;20043;-19
2020/12/22 13:22:56;;;;;;;18.75;9.93;;;;;;;;;;5091328;28;20027;-21
2020/12/22 13:25:22;;;;;;;15.18;7.32;;;;;;;;;;5090947;28;20497;-20
2020/12/22 13:27:47;;;;;;;17.05;8.05;;;;;;;;;;5094351;28;20035;-19
2020/12/22 13:30:12;;;;;;;16.00;8.48;;;;;;;;;;5111664;28;20036;-20
2020/12/22 13:32:38;;;;;;;21.13;10.27;;;;;;;;;;5111386;28;20019;-20
2020/12/22 13:35:03;;;;;;;17.05;8.63;;;;;;;;;;5111575;28;20031;-20
2020/12/22 13:37:29;;;;;;;22.55;9.07;;;;;;;;;;5111276;28;20038;-21
2020/12/22 13:39:54;;;;;;;16.05;7.90;;;;;;;;;;5111385;28;20036;-20
2020/12/22 13:42:20;;;;;;;16.88;9.35;;;;;;;;;;5111578;28;20381;-19
2020/12/22 13:44:46;;;;;;;19.45;8.80;;;;;;;;;;5111391;28;20031;-20
2020/12/22 13:47:11;;;;;;;14.55;7.88;;;;;;;;;;5110453;28;20035;-19
2020/12/22 13:49:36;;;;;;;14.35;8.43;;;;;;;;;;5110852;28;20379;-20
2020/12/22 13:52:02;;;;;;;16.83;8.90;;;;;;;;;;5111266;28;20439;-21
2020/12/22 13:54:27;;;;;;;16.60;8.65;;;;;;;;;;5111590;28;20591;-19
2020/12/22 13:56:53;;;;;;;14.73;8.10;;;;;;;;;;5111489;28;20058;-20
2020/12/22 13:59:19;;;;;;;21.38;9.38;;;;;;;;;;5109965;28;20024;-19
2020/12/22 14:01:44;;;;;;;24.33;9.43;;;;;;;;;;5111325;28;20246;-20
2020/12/22 14:04:10;;;;;;;18.08;9.10;;;;;;;;;;5111438;28;20505;-20
2020/12/22 14:06:35;;;;;;;27.90;9.95;;;;;;;;;;5111170;28;20483;-20
2020/12/22 14:09:01;;;;;;;19.25;8.48;;;;;;;;;;5110975;28;20049;-20
2020/12/22 14:11:27;;;;;;;19.05;9.65;;;;;;;;;;5110931;28;20542;-19
2020/12/22 14:13:53;;;;;;;21.73;9.70;;;;;;;;;;5110913;28;20027;-19
2020/12/22 14:16:19;;;;;;;21.10;9.55;;;;;;;;;;5110774;28;20026;-20